METAR Data
IDs: Format: Raw Decoded Include TAF

Data at: 0236 UTC 29 Nov 2020

METAR for:KIOW (Iowa City Muni, IA, US)
Text:KIOW 290152Z AUTO 22003KT 10SM CLR 06/01 A3004 RMK AO2 SLP180 T00610006
Temperature: 6.1°C ( 43°F)
Dewpoint: 0.6°C ( 33°F) [RH = 68%]
Pressure (altimeter):30.04 inches Hg (1017.4 mb) [Sea level pressure: 1018.0 mb]
Winds:from the SW (220 degrees) at 3 MPH (3 knots; 1.5 m/s)
Visibility:10 or more sm (16+ km)
Ceiling:at least 12,000 feet AGL
Clouds:sky clear below 12,000 feet AGL
QC Flag:automated observation with no human augmentation